createdAt,value
2023-03-28T00:01:08.543Z,61.64
2023-03-28T00:03:39.435Z,61.47
2023-03-28T00:06:13.929Z,61.56
2023-03-28T00:08:41.398Z,61.56
2023-03-28T00:11:19.665Z,61.27
2023-03-28T00:13:57.798Z,61.50
2023-03-28T00:16:27.726Z,61.17
2023-03-28T00:18:54.747Z,61.16
2023-03-28T00:21:29.324Z,61.31
2023-03-28T00:24:03.008Z,61.29
2023-03-28T00:26:34.511Z,61.90
2023-03-28T00:29:03.927Z,61.70
2023-03-28T00:31:35.356Z,61.88
2023-03-28T00:34:02.567Z,61.66
2023-03-28T00:36:32.733Z,62.00
2023-03-28T00:39:01.864Z,61.72
2023-03-28T00:41:33.023Z,61.84
2023-03-28T00:44:01.311Z,62.03
2023-03-28T00:46:41.915Z,62.15
2023-03-28T00:49:23.486Z,61.97
2023-03-28T00:52:03.318Z,62.31
2023-03-28T00:54:39.796Z,62.56
2023-03-28T00:57:08.417Z,62.86
2023-03-28T00:59:38.917Z,62.63
2023-03-28T01:02:07.269Z,62.69
2023-03-28T01:04:52.229Z,62.57
2023-03-28T01:07:20.553Z,62.50
2023-03-28T01:09:49.440Z,62.63
2023-03-28T01:12:19.842Z,62.67
2023-03-28T01:14:47.794Z,62.82
2023-03-28T01:17:16.168Z,63.09
2023-03-28T01:19:50.492Z,63.71
2023-03-28T01:22:57.872Z,64.40
2023-03-28T01:25:53.651Z,64.58
2023-03-28T01:28:44.602Z,65.00
2023-03-28T01:31:47.960Z,65.89
2023-03-28T01:35:05.563Z,66.09
2023-03-28T01:37:51.774Z,66.31
2023-03-28T01:40:50.242Z,67.94
2023-03-28T01:43:43.816Z,68.30
2023-03-28T01:46:28.519Z,68.53
2023-03-28T01:49:18.257Z,68.91
2023-03-28T01:52:08.977Z,70.08
2023-03-28T01:55:09.370Z,70.45
2023-03-28T01:58:15.022Z,70.45
2023-03-28T02:00:48.002Z,70.79
2023-03-28T02:03:30.697Z,71.21
2023-03-28T02:05:59.809Z,70.82
2023-03-28T02:08:32.682Z,70.51
2023-03-28T02:10:59.910Z,70.92
2023-03-28T02:13:35.561Z,70.45
2023-03-28T02:16:05.041Z,70.85
2023-03-28T02:18:38.073Z,70.75
2023-03-28T02:21:17.081Z,71.03
2023-03-28T02:23:54.171Z,71.10
2023-03-28T02:26:24.167Z,71.65
2023-03-28T02:28:57.083Z,71.41
2023-03-28T02:31:25.067Z,71.94
2023-03-28T02:33:53.542Z,72.14
2023-03-28T02:37:07.680Z,72.10
2023-03-28T02:40:00.779Z,72.59
2023-03-28T02:43:01.276Z,72.76
2023-03-28T02:46:07.286Z,73.35
2023-03-28T02:48:59.208Z,73.00
2023-03-28T02:51:58.667Z,72.89
2023-03-28T02:54:58.552Z,73.62
2023-03-28T02:57:28.229Z,74.31
2023-03-28T02:59:58.892Z,74.40
2023-03-28T03:02:29.096Z,74.52
2023-03-28T03:04:57.894Z,74.57
2023-03-28T03:07:25.936Z,74.92
2023-03-28T03:09:53.937Z,75.21
2023-03-28T03:12:21.682Z,75.50
2023-03-28T03:14:50.886Z,75.76
2023-03-28T03:17:18.441Z,75.59
2023-03-28T03:19:45.631Z,75.65
2023-03-28T03:22:20.653Z,76.21
2023-03-28T03:24:51.116Z,76.31
2023-03-28T03:27:19.538Z,75.58
2023-03-28T03:29:48.572Z,75.38
2023-03-28T03:32:15.980Z,75.27
2023-03-28T03:34:43.016Z,75.31
2023-03-28T03:37:10.145Z,74.97
2023-03-28T03:39:37.185Z,74.85
2023-03-28T03:42:04.732Z,74.90
2023-03-28T03:44:31.960Z,74.21
2023-03-28T03:46:59.033Z,73.54
2023-03-28T03:49:26.042Z,73.53
2023-03-28T03:51:53.273Z,73.03
2023-03-28T03:54:20.394Z,73.48
2023-03-28T03:56:48.669Z,73.11
2023-03-28T03:59:16.571Z,72.76
2023-03-28T04:01:44.226Z,72.93
2023-03-28T04:04:11.612Z,72.33
2023-03-28T04:06:41.698Z,72.63
2023-03-28T04:09:08.995Z,73.25
2023-03-28T04:11:36.533Z,73.64
2023-03-28T04:14:04.258Z,72.97
2023-03-28T04:16:40.799Z,73.10
2023-03-28T04:19:11.033Z,72.33
2023-03-28T04:21:41.710Z,72.27
2023-03-28T04:24:09.425Z,72.33
2023-03-28T04:26:38.160Z,72.59
2023-03-28T04:29:05.978Z,72.48
2023-03-28T04:31:36.143Z,72.67
2023-03-28T04:34:06.284Z,72.89
2023-03-28T04:36:33.649Z,72.11
2023-03-28T04:39:02.876Z,72.40
2023-03-28T04:41:33.199Z,71.91
2023-03-28T04:44:00.998Z,71.94
2023-03-28T04:46:31.593Z,72.13
2023-03-28T04:48:58.575Z,72.22
2023-03-28T04:51:25.710Z,72.22
2023-03-28T04:53:52.746Z,71.23
2023-03-28T04:56:19.869Z,69.62
2023-03-28T04:58:47.759Z,69.44
2023-03-28T05:01:14.830Z,69.06
2023-03-28T05:03:41.949Z,68.15
2023-03-28T05:06:09.175Z,66.69
2023-03-28T05:08:36.336Z,66.82
2023-03-28T05:11:03.398Z,66.77
2023-03-28T05:13:30.530Z,66.74
2023-03-28T05:15:57.698Z,66.26
2023-03-28T05:18:24.723Z,63.53
2023-03-28T05:20:51.796Z,60.79
2023-03-28T05:23:18.929Z,58.17
2023-03-28T05:25:54.433Z,51.63
2023-03-28T05:28:21.917Z,46.60
2023-03-28T05:30:49.490Z,46.49
2023-03-28T05:33:16.720Z,49.89
2023-03-28T05:35:44.004Z,52.31
2023-03-28T05:38:11.531Z,54.10
2023-03-28T05:40:38.569Z,55.00
2023-03-28T05:43:05.821Z,54.99
2023-03-28T05:45:33.109Z,54.79
2023-03-28T05:48:00.205Z,56.75
2023-03-28T05:50:27.550Z,57.63
2023-03-28T05:52:54.640Z,58.66
2023-03-28T05:55:21.675Z,60.42
2023-03-28T05:57:48.703Z,61.76
2023-03-28T06:00:16.558Z,63.28
2023-03-28T06:02:43.636Z,64.19
2023-03-28T06:05:13.899Z,64.78
2023-03-28T06:07:42.958Z,65.06
2023-03-28T06:10:13.937Z,65.25
2023-03-28T06:12:41.514Z,65.91
2023-03-28T06:15:10.753Z,67.65
2023-03-28T06:17:38.304Z,68.46
2023-03-28T06:20:06.923Z,69.09
2023-03-28T06:22:34.198Z,69.15
2023-03-28T06:25:01.273Z,71.07
2023-03-28T06:27:28.472Z,71.57
2023-03-28T06:29:55.750Z,71.37
2023-03-28T06:32:22.985Z,71.79
2023-03-28T06:34:50.767Z,71.75
2023-03-28T06:37:17.788Z,71.58
2023-03-28T06:39:44.769Z,71.79
2023-03-28T06:42:11.828Z,72.73
2023-03-28T06:44:38.849Z,72.97
2023-03-28T06:47:05.981Z,73.88
2023-03-28T06:49:32.976Z,74.23
2023-03-28T06:51:59.964Z,73.81
2023-03-28T06:54:27.024Z,73.30
2023-03-28T06:56:54.076Z,73.49
2023-03-28T06:59:21.297Z,75.74
2023-03-28T07:01:48.368Z,75.32
2023-03-28T07:04:15.439Z,75.66
2023-03-28T07:06:42.449Z,76.15
2023-03-28T07:09:09.444Z,75.58
2023-03-28T07:11:36.461Z,74.64
2023-03-28T07:14:03.554Z,72.96
2023-03-28T07:16:30.628Z,72.50
2023-03-28T07:18:57.647Z,74.12
2023-03-28T07:21:24.650Z,75.32
2023-03-28T07:23:51.608Z,75.82
2023-03-28T07:26:18.603Z,75.86
2023-03-28T07:28:45.625Z,75.33
2023-03-28T07:31:13.067Z,75.42
2023-03-28T07:33:40.290Z,75.43
2023-03-28T07:36:15.386Z,74.96
2023-03-28T07:38:42.548Z,74.55
2023-03-28T07:41:10.922Z,74.78
2023-03-28T07:43:39.997Z,74.62
2023-03-28T07:46:11.202Z,73.84
2023-03-28T07:48:38.603Z,72.61
2023-03-28T07:51:06.546Z,73.38
2023-03-28T07:53:34.926Z,73.18
2023-03-28T07:56:01.963Z,72.21
2023-03-28T07:58:29.049Z,71.97
2023-03-28T08:00:56.434Z,70.84
2023-03-28T08:03:23.969Z,70.20
2023-03-28T08:05:54.416Z,68.40
2023-03-28T08:08:21.832Z,66.19
2023-03-28T08:10:52.171Z,65.98
2023-03-28T08:13:21.097Z,66.30
2023-03-28T08:15:54.990Z,66.25
2023-03-28T08:18:25.203Z,65.28
2023-03-28T08:21:00.074Z,65.18
2023-03-28T08:23:28.318Z,61.68
2023-03-28T08:26:05.133Z,59.40
2023-03-28T08:28:37.560Z,56.64
2023-03-28T08:31:16.343Z,57.70
2023-03-28T08:33:48.640Z,57.67
2023-03-28T08:36:15.734Z,58.58
2023-03-28T08:38:44.836Z,59.12
2023-03-28T08:41:42.248Z,56.72
2023-03-28T08:44:29.589Z,51.71
2023-03-28T08:47:12.064Z,49.85
2023-03-28T08:50:24.160Z,48.13
2023-03-28T08:52:51.974Z,47.34
2023-03-28T08:55:28.106Z,48.63
2023-03-28T08:57:57.580Z,47.93
2023-03-28T09:00:37.037Z,48.54
2023-03-28T09:03:12.692Z,48.83
2023-03-28T09:06:23.681Z,49.88
2023-03-28T09:09:08.816Z,50.43
2023-03-28T09:12:04.771Z,50.88
2023-03-28T09:15:17.566Z,54.69
2023-03-28T09:18:03.169Z,62.75
2023-03-28T09:20:57.232Z,64.27
2023-03-28T09:24:41.524Z,66.00
2023-03-28T09:27:37.723Z,65.87
2023-03-28T09:30:37.425Z,65.03
2023-03-28T09:33:13.296Z,64.70
2023-03-28T09:35:42.295Z,65.26
2023-03-28T09:38:29.578Z,63.47
2023-03-28T09:41:00.701Z,63.12
2023-03-28T09:43:42.567Z,62.39
2023-03-28T09:46:18.726Z,63.81
2023-03-28T09:48:45.947Z,64.60
2023-03-28T09:51:19.546Z,65.14
2023-03-28T09:53:46.771Z,66.15
2023-03-28T09:56:33.176Z,65.14
2023-03-28T09:59:03.662Z,65.57
2023-03-28T10:01:40.285Z,64.83
2023-03-28T10:04:17.345Z,63.73
2023-03-28T10:06:48.223Z,62.16
2023-03-28T10:09:28.518Z,62.74
2023-03-28T10:12:11.037Z,61.91
2023-03-28T10:14:41.426Z,60.63
2023-03-28T10:17:30.081Z,60.42
2023-03-28T10:20:19.539Z,60.14
2023-03-28T10:22:51.238Z,59.32
2023-03-28T10:25:36.834Z,58.97
2023-03-28T10:28:07.279Z,59.13
2023-03-28T10:30:36.977Z,59.34
2023-03-28T10:33:17.681Z,60.14
2023-03-28T10:35:53.960Z,59.31
2023-03-28T10:38:22.936Z,58.95
2023-03-28T10:41:05.098Z,58.63
2023-03-28T10:43:41.923Z,58.01
2023-03-28T10:46:20.092Z,58.25
2023-03-28T10:48:53.794Z,59.25
2023-03-28T10:51:24.417Z,58.70
2023-03-28T10:54:07.809Z,57.72
2023-03-28T10:57:04.263Z,56.85
2023-03-28T11:00:07.256Z,57.07
2023-03-28T11:02:50.013Z,56.42
2023-03-28T11:06:09.432Z,56.11
2023-03-28T11:08:51.495Z,55.51
2023-03-28T11:11:46.169Z,53.75
2023-03-28T11:14:45.223Z,52.25
2023-03-28T11:17:20.830Z,52.05
2023-03-28T11:20:27.001Z,52.22
2023-03-28T11:23:08.238Z,52.16
2023-03-28T11:25:55.719Z,51.37
2023-03-28T11:28:46.927Z,51.81
2023-03-28T11:31:26.739Z,52.36
2023-03-28T11:33:58.085Z,52.34
2023-03-28T11:37:08.140Z,52.25
2023-03-28T11:39:52.393Z,51.82
2023-03-28T11:42:34.846Z,51.05
2023-03-28T11:45:49.362Z,50.92
2023-03-28T11:48:34.716Z,50.43
2023-03-28T11:51:45.688Z,48.98
2023-03-28T11:54:12.600Z,47.20
2023-03-28T11:57:00.257Z,45.97
2023-03-28T11:59:47.875Z,46.11
2023-03-28T12:02:30.622Z,46.08
2023-03-28T12:05:26.989Z,45.53
2023-03-28T12:08:23.262Z,45.13
2023-03-28T12:10:57.561Z,46.10
2023-03-28T12:13:33.834Z,45.90
2023-03-28T12:16:18.810Z,45.51
2023-03-28T12:19:01.423Z,45.78
2023-03-28T12:21:54.323Z,45.64
2023-03-28T12:24:42.685Z,45.13
2023-03-28T12:27:27.713Z,44.98
2023-03-28T12:30:07.804Z,43.91
2023-03-28T12:33:01.872Z,44.38
2023-03-28T12:35:53.028Z,43.32
2023-03-28T12:38:32.914Z,43.45
2023-03-28T12:41:06.176Z,41.29
2023-03-28T12:43:38.741Z,40.63
2023-03-28T12:46:08.806Z,40.03
2023-03-28T12:48:54.384Z,39.89
2023-03-28T12:51:36.656Z,40.43
2023-03-28T12:54:15.793Z,40.10
2023-03-28T12:57:04.258Z,39.51
2023-03-28T12:59:56.383Z,40.07
2023-03-28T13:02:39.416Z,41.03
2023-03-28T13:05:43.925Z,41.13
2023-03-28T13:08:32.029Z,42.06
2023-03-28T13:11:55.015Z,42.77
2023-03-28T13:14:41.165Z,43.07
2023-03-28T13:17:18.442Z,43.41
2023-03-28T13:20:10.404Z,42.68
2023-03-28T13:22:48.837Z,42.01
2023-03-28T13:25:33.339Z,40.50
2023-03-28T13:28:22.921Z,40.03
2023-03-28T13:31:25.117Z,40.59
2023-03-28T13:33:54.140Z,40.74
2023-03-28T13:36:27.847Z,39.82
2023-03-28T13:39:25.406Z,39.82
2023-03-28T13:41:52.635Z,40.26
2023-03-28T13:44:39.448Z,40.88
2023-03-28T13:47:06.820Z,40.91
2023-03-28T13:49:54.746Z,41.16
2023-03-28T13:52:24.963Z,43.04
2023-03-28T13:54:55.048Z,44.43
2023-03-28T13:57:26.346Z,44.41
2023-03-28T14:00:05.851Z,44.25
2023-03-28T14:02:47.184Z,43.61
2023-03-28T14:05:23.189Z,42.34
2023-03-28T14:07:52.446Z,42.54
2023-03-28T14:10:39.558Z,41.88
2023-03-28T14:13:12.443Z,41.18
2023-03-28T14:15:42.122Z,41.43
2023-03-28T14:18:41.147Z,40.54
2023-03-28T14:21:08.483Z,41.31
2023-03-28T14:23:39.702Z,41.93
2023-03-28T14:26:20.264Z,42.03
2023-03-28T14:28:47.595Z,42.46
2023-03-28T14:31:37.614Z,42.95
2023-03-28T14:34:24.314Z,43.82
2023-03-28T14:36:59.808Z,42.23
2023-03-28T14:39:30.904Z,41.43
2023-03-28T14:42:02.287Z,41.10
2023-03-28T14:44:30.767Z,41.66
2023-03-28T14:46:59.977Z,42.26
2023-03-28T14:49:28.029Z,42.35
2023-03-28T14:52:01.305Z,42.89
2023-03-28T14:54:39.032Z,43.44
2023-03-28T14:57:06.618Z,43.79
2023-03-28T14:59:45.223Z,43.05
2023-03-28T15:02:36.855Z,42.81
2023-03-28T15:05:09.008Z,42.35
2023-03-28T15:07:37.349Z,41.71
2023-03-28T15:10:21.159Z,41.75
2023-03-28T15:13:05.676Z,42.49
2023-03-28T15:15:36.922Z,42.41
2023-03-28T15:18:13.554Z,43.19
2023-03-28T15:20:45.643Z,43.87
2023-03-28T15:23:27.129Z,44.14
2023-03-28T15:25:55.055Z,43.23
2023-03-28T15:28:22.649Z,44.52
2023-03-28T15:30:50.278Z,43.95
2023-03-28T15:33:28.131Z,43.89
2023-03-28T15:36:15.539Z,43.88
2023-03-28T15:38:43.304Z,43.88
2023-03-28T15:41:41.873Z,43.71
2023-03-28T15:44:27.788Z,44.87
2023-03-28T15:47:14.990Z,44.66
2023-03-28T15:49:42.235Z,43.69
2023-03-28T15:52:21.461Z,43.96
2023-03-28T15:54:59.757Z,44.53
2023-03-28T15:57:29.767Z,44.29
2023-03-28T15:59:58.413Z,43.69
2023-03-28T16:02:25.580Z,43.74
2023-03-28T16:05:09.705Z,43.64
2023-03-28T16:07:57.235Z,44.65
2023-03-28T16:10:25.672Z,46.21
2023-03-28T16:12:52.886Z,46.97
2023-03-28T16:15:20.340Z,50.32
2023-03-28T16:17:48.828Z,51.37
2023-03-28T16:20:22.238Z,52.94
2023-03-28T16:22:49.696Z,53.22
2023-03-28T16:25:16.800Z,52.92
2023-03-28T16:27:44.067Z,53.13
2023-03-28T16:30:27.131Z,53.28
2023-03-28T16:32:54.289Z,53.88
2023-03-28T16:35:22.775Z,54.12
2023-03-28T16:37:49.891Z,53.97
2023-03-28T16:40:17.418Z,54.08
2023-03-28T16:42:44.517Z,54.17
2023-03-28T16:45:13.039Z,53.54
2023-03-28T16:47:41.508Z,53.66
2023-03-28T16:50:09.671Z,53.32
2023-03-28T16:52:40.541Z,52.21
2023-03-28T16:55:14.919Z,52.13
2023-03-28T16:57:42.712Z,52.21
2023-03-28T17:00:17.956Z,51.79
2023-03-28T17:02:48.666Z,54.40
2023-03-28T17:05:16.940Z,52.41
2023-03-28T17:07:43.959Z,52.07
2023-03-28T17:10:11.631Z,52.52
2023-03-28T17:12:38.676Z,52.83
2023-03-28T17:15:06.785Z,53.14
2023-03-28T17:17:33.982Z,53.50
2023-03-28T17:20:01.350Z,54.22
2023-03-28T17:22:28.417Z,54.53
2023-03-28T17:24:57.305Z,55.20
2023-03-28T17:27:24.437Z,57.52
2023-03-28T17:29:51.860Z,58.71
2023-03-28T17:32:19.374Z,59.27
2023-03-28T17:34:46.807Z,59.17
2023-03-28T17:37:13.854Z,58.57
2023-03-28T17:39:41.169Z,59.02
2023-03-28T17:42:09.663Z,58.29
2023-03-28T17:44:36.713Z,59.07
2023-03-28T17:47:03.965Z,59.57
2023-03-28T17:49:31.286Z,59.80
2023-03-28T17:51:59.920Z,59.80
2023-03-28T17:54:27.141Z,60.32
2023-03-28T17:56:54.483Z,59.68
2023-03-28T17:59:22.332Z,59.85
2023-03-28T18:01:49.887Z,60.66
2023-03-28T18:04:17.748Z,61.26
2023-03-28T18:06:44.817Z,60.97
2023-03-28T18:09:11.904Z,61.12
2023-03-28T18:11:39.455Z,61.73
2023-03-28T18:14:08.722Z,62.43
2023-03-28T18:16:36.862Z,62.35
2023-03-28T18:19:06.871Z,61.81
2023-03-28T18:21:34.306Z,61.63
2023-03-28T18:24:01.283Z,62.29
2023-03-28T18:26:28.932Z,62.93
2023-03-28T18:28:55.997Z,62.49
2023-03-28T18:31:28.136Z,62.06
2023-03-28T18:33:57.205Z,62.51
2023-03-28T18:36:24.419Z,62.85
2023-03-28T18:38:51.784Z,63.32
2023-03-28T18:41:18.753Z,64.01
2023-03-28T18:43:45.815Z,64.05
2023-03-28T18:46:16.415Z,63.67
2023-03-28T18:48:44.880Z,63.85
2023-03-28T18:51:12.476Z,63.79
2023-03-28T18:53:39.530Z,63.93
2023-03-28T18:56:08.209Z,64.45
2023-03-28T18:58:37.155Z,65.18
2023-03-28T19:01:05.344Z,64.77
2023-03-28T19:03:40.364Z,64.84
2023-03-28T19:06:10.148Z,65.27
2023-03-28T19:08:37.783Z,65.53
2023-03-28T19:11:16.759Z,65.12
2023-03-28T19:13:44.257Z,64.90
2023-03-28T19:16:19.305Z,64.64
2023-03-28T19:18:47.472Z,65.43
2023-03-28T19:21:16.676Z,64.97
2023-03-28T19:23:44.554Z,63.47
2023-03-28T19:26:13.198Z,63.66
2023-03-28T19:28:41.176Z,63.69
2023-03-28T19:31:11.338Z,63.95
2023-03-28T19:33:40.872Z,63.68
2023-03-28T19:36:09.632Z,63.95
2023-03-28T19:38:38.226Z,63.98
2023-03-28T19:41:15.175Z,63.98
2023-03-28T19:43:43.065Z,63.34
2023-03-28T19:46:23.033Z,62.89
2023-03-28T19:48:53.231Z,63.14
2023-03-28T19:51:20.234Z,63.09
2023-03-28T19:53:47.243Z,63.15
2023-03-28T19:56:14.400Z,62.73
2023-03-28T19:58:41.772Z,62.51
2023-03-28T20:01:09.091Z,62.43
2023-03-28T20:03:36.217Z,62.44
2023-03-28T20:06:10.895Z,61.97
2023-03-28T20:08:38.706Z,61.78
2023-03-28T20:11:12.038Z,61.27
2023-03-28T20:13:39.917Z,61.35
2023-03-28T20:16:10.396Z,60.51
2023-03-28T20:18:38.898Z,59.96
2023-03-28T20:21:14.059Z,60.28
2023-03-28T20:23:41.526Z,60.22
2023-03-28T20:26:18.672Z,60.40
2023-03-28T20:28:52.310Z,60.39
2023-03-28T20:31:19.793Z,60.19
2023-03-28T20:33:46.921Z,59.12
2023-03-28T20:36:14.322Z,59.35
2023-03-28T20:38:41.406Z,59.77
2023-03-28T20:41:18.921Z,59.46
2023-03-28T20:43:50.286Z,59.13
2023-03-28T20:46:19.541Z,58.95
2023-03-28T20:48:52.612Z,58.82
2023-03-28T20:51:22.906Z,58.56
2023-03-28T20:53:59.810Z,57.98
2023-03-28T20:56:30.106Z,58.06
2023-03-28T20:58:59.666Z,57.66
2023-03-28T21:01:30.128Z,58.14
2023-03-28T21:04:00.180Z,58.06
2023-03-28T21:06:34.844Z,57.86
2023-03-28T21:09:08.600Z,57.85
2023-03-28T21:11:38.080Z,57.42
2023-03-28T21:14:07.066Z,57.47
2023-03-28T21:16:34.716Z,57.74
2023-03-28T21:19:02.735Z,57.59
2023-03-28T21:21:33.242Z,56.50
2023-03-28T21:24:01.047Z,57.05
2023-03-28T21:26:29.243Z,57.09
2023-03-28T21:28:56.352Z,57.33
2023-03-28T21:31:27.434Z,56.66
2023-03-28T21:33:59.528Z,55.54
2023-03-28T21:36:27.696Z,55.98
2023-03-28T21:38:56.110Z,55.97
2023-03-28T21:41:23.914Z,55.79
2023-03-28T21:43:53.766Z,56.39
2023-03-28T21:46:22.023Z,56.79
2023-03-28T21:48:50.144Z,55.98
2023-03-28T21:51:18.033Z,55.98
2023-03-28T21:53:45.806Z,55.75
2023-03-28T21:56:14.920Z,55.30
2023-03-28T21:58:42.572Z,55.43
2023-03-28T22:01:14.075Z,55.39
2023-03-28T22:03:41.787Z,55.48
2023-03-28T22:06:09.482Z,54.98
2023-03-28T22:08:36.688Z,55.64
2023-03-28T22:11:14.530Z,55.52
2023-03-28T22:13:44.924Z,55.71
2023-03-28T22:16:15.549Z,55.90
2023-03-28T22:18:50.321Z,55.70
2023-03-28T22:21:17.619Z,55.63
2023-03-28T22:23:47.081Z,55.64
2023-03-28T22:26:14.745Z,55.88
2023-03-28T22:28:41.825Z,56.09
2023-03-28T22:31:09.051Z,56.18
2023-03-28T22:33:37.146Z,55.86
2023-03-28T22:36:05.070Z,55.66
2023-03-28T22:38:32.129Z,56.05
2023-03-28T22:40:59.270Z,56.03
2023-03-28T22:43:26.796Z,55.93
2023-03-28T22:45:53.781Z,55.87
2023-03-28T22:48:22.028Z,56.22
2023-03-28T22:50:50.310Z,56.14
2023-03-28T22:53:18.264Z,56.81
2023-03-28T22:55:45.391Z,56.98
2023-03-28T22:58:12.575Z,56.66
2023-03-28T23:00:39.985Z,56.41
2023-03-28T23:03:08.090Z,56.85
2023-03-28T23:05:35.522Z,56.77
2023-03-28T23:08:03.183Z,56.94
2023-03-28T23:10:30.669Z,57.36
2023-03-28T23:12:58.087Z,57.24
2023-03-28T23:15:25.400Z,57.19
2023-03-28T23:17:52.789Z,56.66
2023-03-28T23:20:20.401Z,57.32
2023-03-28T23:22:48.833Z,57.86
2023-03-28T23:25:18.742Z,57.23
2023-03-28T23:27:46.776Z,57.40
2023-03-28T23:30:15.867Z,57.34
2023-03-28T23:32:43.143Z,57.07
2023-03-28T23:35:11.841Z,57.55
2023-03-28T23:37:39.908Z,57.22
2023-03-28T23:40:14.778Z,57.44
2023-03-28T23:42:44.188Z,57.94
2023-03-28T23:45:13.973Z,57.69
2023-03-28T23:47:42.048Z,57.00
2023-03-28T23:50:10.265Z,57.42
2023-03-28T23:52:37.506Z,57.65
2023-03-28T23:55:05.585Z,57.38
2023-03-28T23:57:33.063Z,57.71
